QTR119 OTHH-EGLL
Flight info
| Callsign | QTR119 |
|---|---|
| Flight time | N/A |
| Altitude | 28000 |
| Route | DATRI L564 BAT/N0517F290 L564 MIGMA/N0508F280 M550 MEVDO Y511 ITRUX/N0501F340 Y511 PMA Z712 WEJ L677 EMOVA/N0490F360 L677 CVO L617 NOZ L551 ANTAR DCT NEVRA DCT TALAS DCT ENFAR DCT AKIKA DCT SOLGU DCT NAVSU DCT NEMEK DCT MODSA/N0481F380 DCT BABEG DCT LIRSU DCT DENUT L608 LOGAN |
| Aircraft | B77W/H-SDE1E2E3FGHIJ2J3J4J5M1RWXY/LB1D1 |
Departure
| Time | 2026-05-05 15:06 |
|---|---|
| Airport | Hamad International Airport (OTHH) |
Arrival
| Time | N/A |
|---|---|
| Airport | London Heathrow Airport (EGLL) |
| Time | Latitude | Longitude | Altitude | Speed | Heading |
|---|---|---|---|---|---|
| 2026-05-05 14:17 | 25.26420 | 51.61349 | 27 ft | 0 kts | 248° |
| 2026-05-05 14:19 | 25.26419 | 51.61346 | 27 ft | 0 kts | 248° |
| 2026-05-05 14:52 | 25.26422 | 51.61356 | 27 ft | 3 kts | 248° |
| 2026-05-05 14:53 | 25.26430 | 51.61377 | 26 ft | 3 kts | 248° |
| 2026-05-05 14:53 | 25.26437 | 51.61396 | 25 ft | 3 kts | 242° |
| 2026-05-05 14:53 | 25.26447 | 51.61413 | 25 ft | 3 kts | 222° |
| 2026-05-05 14:53 | 25.26460 | 51.61424 | 25 ft | 3 kts | 196° |
| 2026-05-05 14:54 | 25.26477 | 51.61427 | 24 ft | 3 kts | 171° |
| 2026-05-05 14:54 | 25.26496 | 51.61421 | 25 ft | 3 kts | 158° |
| 2026-05-05 14:54 | 25.26516 | 51.61412 | 25 ft | 3 kts | 158° |
| 2026-05-05 14:54 | 25.26519 | 51.61411 | 25 ft | 0 kts | 158° |
| 2026-05-05 14:57 | 25.26516 | 51.61412 | 25 ft | 2 kts | 158° |
| 2026-05-05 14:57 | 25.26485 | 51.61426 | 25 ft | 7 kts | 158° |
| 2026-05-05 14:57 | 25.26440 | 51.61446 | 26 ft | 7 kts | 158° |
| 2026-05-05 14:58 | 25.26402 | 51.61476 | 27 ft | 7 kts | 125° |
| 2026-05-05 14:58 | 25.26401 | 51.61543 | 27 ft | 11 kts | 73° |
| 2026-05-05 14:58 | 25.26429 | 51.61625 | 27 ft | 11 kts | 69° |
| 2026-05-05 14:58 | 25.26457 | 51.61707 | 27 ft | 11 kts | 67° |
| 2026-05-05 14:59 | 25.26488 | 51.61788 | 27 ft | 11 kts | 68° |
| 2026-05-05 14:59 | 25.26517 | 51.61870 | 27 ft | 11 kts | 68° |
| 2026-05-05 14:59 | 25.26509 | 51.61951 | 27 ft | 11 kts | 134° |
| 2026-05-05 14:59 | 25.26437 | 51.61992 | 27 ft | 12 kts | 155° |
| 2026-05-05 15:00 | 25.26363 | 51.62024 | 27 ft | 12 kts | 159° |
| 2026-05-05 15:00 | 25.26312 | 51.62046 | 27 ft | 12 kts | 159° |
| 2026-05-05 15:00 | 25.26213 | 51.62090 | 27 ft | 12 kts | 158° |
| 2026-05-05 15:00 | 25.26138 | 51.62123 | 27 ft | 12 kts | 158° |
| 2026-05-05 15:01 | 25.26063 | 51.62156 | 28 ft | 12 kts | 158° |
| 2026-05-05 15:01 | 25.25988 | 51.62189 | 27 ft | 12 kts | 158° |
| 2026-05-05 15:01 | 25.25913 | 51.62222 | 27 ft | 12 kts | 158° |
| 2026-05-05 15:01 | 25.25838 | 51.62254 | 27 ft | 12 kts | 158° |
| 2026-05-05 15:02 | 25.25763 | 51.62288 | 27 ft | 12 kts | 158° |
| 2026-05-05 15:02 | 25.25688 | 51.62321 | 27 ft | 12 kts | 158° |
| 2026-05-05 15:02 | 25.25613 | 51.62355 | 27 ft | 12 kts | 158° |
| 2026-05-05 15:02 | 25.25538 | 51.62388 | 27 ft | 12 kts | 158° |
| 2026-05-05 15:03 | 25.25489 | 51.62420 | 27 ft | 8 kts | 130° |
| 2026-05-05 15:03 | 25.25481 | 51.62479 | 27 ft | 8 kts | 77° |
| 2026-05-05 15:03 | 25.25500 | 51.62536 | 27 ft | 8 kts | 67° |
| 2026-05-05 15:03 | 25.25523 | 51.62592 | 27 ft | 8 kts | 59° |
| 2026-05-05 15:04 | 25.25561 | 51.62635 | 28 ft | 8 kts | 36° |
| 2026-05-05 15:04 | 25.25613 | 51.62651 | 28 ft | 8 kts | 3° |
| 2026-05-05 15:04 | 25.25668 | 51.62640 | 27 ft | 8 kts | 341° |
| 2026-05-05 15:04 | 25.25691 | 51.62630 | 27 ft | 0 kts | 339° |
| 2026-05-05 15:05 | 25.26201 | 51.62406 | 28 ft | 98 kts | 338° |
| 2026-05-05 15:05 | 25.27032 | 51.62043 | 28 ft | 156 kts | 338° |
| 2026-05-05 15:05 | 25.28158 | 51.61523 | 163 ft | 185 kts | 339° |
| 2026-05-05 15:06 | 25.29356 | 51.60960 | 625 ft | 192 kts | 339° |
| 2026-05-05 15:06 | 25.30612 | 51.60401 | 1071 ft | 197 kts | 340° |
| 2026-05-05 15:06 | 25.31888 | 51.59846 | 1672 ft | 195 kts | 340° |
| 2026-05-05 15:06 | 25.33217 | 51.59336 | 1863 ft | 211 kts | 355° |
| 2026-05-05 15:07 | 25.34701 | 51.59541 | 2011 ft | 224 kts | 16° |
| 2026-05-05 15:07 | 25.35575 | 51.59815 | 2068 ft | 238 kts | 16° |
| 2026-05-05 15:07 | 25.35618 | 51.59828 | 2070 ft | 239 kts | 16° |
| 2026-05-05 15:07 | 25.37198 | 51.60311 | 2336 ft | 253 kts | 16° |
| 2026-05-05 15:08 | 25.38810 | 51.60796 | 2847 ft | 258 kts | 15° |
| 2026-05-05 15:08 | 25.40578 | 51.61322 | 3409 ft | 262 kts | 15° |
| 2026-05-05 15:08 | 25.42340 | 51.61842 | 3926 ft | 265 kts | 15° |
| 2026-05-05 15:08 | 25.44154 | 51.62374 | 3995 ft | 273 kts | 15° |
| 2026-05-05 15:09 | 25.46001 | 51.62915 | 4004 ft | 275 kts | 15° |
| 2026-05-05 15:09 | 25.47848 | 51.63438 | 3988 ft | 273 kts | 13° |
| 2026-05-05 15:09 | 25.49691 | 51.63883 | 3986 ft | 269 kts | 12° |
| 2026-05-05 15:09 | 25.51515 | 51.64311 | 3996 ft | 268 kts | 12° |
| 2026-05-05 15:10 | 25.53340 | 51.64744 | 4015 ft | 270 kts | 12° |
| 2026-05-05 15:10 | 25.55064 | 51.65158 | 4005 ft | 272 kts | 12° |
| 2026-05-05 15:10 | 25.56919 | 51.65606 | 4014 ft | 274 kts | 12° |
| 2026-05-05 15:10 | 25.58641 | 51.66000 | 4043 ft | 270 kts | 6° |
| 2026-05-05 15:11 | 25.60535 | 51.65726 | 4391 ft | 272 kts | 336° |
| 2026-05-05 15:11 | 25.61981 | 51.64612 | 4925 ft | 276 kts | 313° |
| 2026-05-05 15:11 | 25.62966 | 51.62806 | 5601 ft | 277 kts | 288° |
| 2026-05-05 15:11 | 25.63178 | 51.60695 | 6233 ft | 279 kts | 264° |
| 2026-05-05 15:12 | 25.62593 | 51.58656 | 6786 ft | 280 kts | 245° |
| 2026-05-05 15:12 | 25.61725 | 51.56721 | 7010 ft | 284 kts | 245° |